Time;durP1;ratioP1;P1;durP2;ratioP2;P2;SDS_P1;SDS_P2;PMS_P1;PMS_P2;Temp;Humidity;BMP_temperature;BMP_pressure;BME280_temperature;BME280_humidity;BME280_pressure;Samples;Min_cycle;Max_cycle;Signal;HPM_P1;HPM_P2
2022/02/18 00:01:38;;;;;;;8.25;2.47;;;;;;;6.99;55.23;100468.00;1804270;78;21111;-61
2022/02/18 00:04:07;;;;;;;4.12;2.37;;;;;;;6.97;55.74;100471.09;1839766;77;21120;-60
2022/02/18 00:06:36;;;;;;;10.38;3.50;;;;;;;6.95;55.72;100460.69;1851386;77;21497;-61
2022/02/18 00:09:04;;;;;;;4.37;2.67;;;;;;;6.92;55.66;100454.22;1851457;77;21194;-60
2022/02/18 00:11:33;;;;;;;4.53;2.67;;;;;;;6.88;56.02;100438.20;1851638;77;21414;-59
2022/02/18 00:14:02;;;;;;;4.15;2.70;;;;;;;6.87;56.25;100426.01;1851467;77;21078;-61
2022/02/18 00:16:31;;;;;;;5.70;2.47;;;;;;;6.86;56.45;100412.95;1850178;77;21554;-61
2022/02/18 00:18:59;;;;;;;5.30;3.20;;;;;;;6.86;56.28;100404.69;1850145;77;21570;-61
2022/02/18 00:21:28;;;;;;;9.30;3.10;;;;;;;6.87;56.21;100386.75;1849839;77;21497;-61
2022/02/18 00:23:57;;;;;;;6.67;3.10;;;;;;;6.85;56.26;100389.02;1849976;77;21074;-60
2022/02/18 00:26:26;;;;;;;7.35;2.90;;;;;;;6.85;56.31;100376.78;1849873;77;21473;-61
2022/02/18 00:28:55;;;;;;;6.83;2.87;;;;;;;6.87;56.19;100363.66;1850009;77;21082;-61
2022/02/18 00:31:25;;;;;;;4.97;2.52;;;;;;;6.87;56.12;100389.37;1849934;77;21549;-63
2022/02/18 00:33:54;;;;;;;4.72;2.42;;;;;;;6.87;55.96;100372.35;1849975;77;21051;-62
2022/02/18 00:36:23;;;;;;;5.83;2.98;;;;;;;6.89;55.92;100379.70;1849936;77;21550;-61
2022/02/18 00:38:51;;;;;;;5.85;2.67;;;;;;;6.87;55.97;100376.28;1849952;77;21528;-62
2022/02/18 00:41:20;;;;;;;6.95;3.27;;;;;;;6.82;56.07;100367.70;1825292;77;21513;-61
2022/02/18 00:43:49;;;;;;;7.53;2.37;;;;;;;6.82;56.05;100375.55;1823617;79;21671;-62
2022/02/18 00:46:18;;;;;;;4.62;2.52;;;;;;;6.83;55.90;100355.03;1823464;79;21592;-63
2022/02/18 00:48:47;;;;;;;6.92;3.02;;;;;;;6.83;55.85;100355.50;1823664;79;21116;-63
2022/02/18 00:51:16;;;;;;;6.75;3.55;;;;;;;6.79;55.99;100342.95;1823605;79;21529;-62
2022/02/18 00:53:46;;;;;;;6.97;2.90;;;;;;;6.80;55.93;100352.95;1840406;77;21102;-62
2022/02/18 00:56:15;;;;;;;7.83;2.52;;;;;;;6.81;55.74;100333.75;1829215;77;21040;-60
2022/02/18 00:58:43;;;;;;;4.58;1.90;;;;;;;6.83;55.34;100336.72;1811803;79;21020;-60
2022/02/18 01:01:12;;;;;;;12.20;2.95;;;;;;;6.79;55.12;100331.17;1811800;79;21109;-61
2022/02/18 01:03:41;;;;;;;4.90;2.62;;;;;;;6.85;54.48;100333.59;1811866;79;21178;-62
2022/02/18 01:06:10;;;;;;;5.65;2.75;;;;;;;6.88;54.50;100336.13;1840538;77;21566;-62
2022/02/18 01:08:40;;;;;;;5.17;2.65;;;;;;;6.88;54.06;100326.09;1851189;77;21089;-61
2022/02/18 01:11:09;;;;;;;5.45;2.62;;;;;;;6.87;53.97;100346.18;1851418;77;21187;-61
2022/02/18 01:13:38;;;;;;;8.25;3.58;;;;;;;6.85;53.88;100334.06;1851393;77;21199;-62
2022/02/18 01:16:06;;;;;;;13.43;3.20;;;;;;;6.85;53.94;100343.22;1832649;77;21499;-62
2022/02/18 01:18:35;;;;;;;6.20;3.00;;;;;;;6.83;53.51;100345.87;1811972;79;21233;-60
2022/02/18 01:21:05;;;;;;;5.28;2.60;;;;;;;6.83;53.57;100341.95;1811939;79;21084;-62
2022/02/18 01:23:35;;;;;;;6.08;2.92;;;;;;;6.84;53.58;100329.71;1795525;80;21097;-62
2022/02/18 01:26:06;;;;;;;7.78;3.33;;;;;;;6.85;53.44;100329.67;1765198;81;21828;-62
2022/02/18 01:28:35;;;;;;;4.97;2.67;;;;;;;6.84;53.27;100324.48;1812055;79;21088;-62
2022/02/18 01:31:03;;;;;;;4.95;2.87;;;;;;;6.83;53.35;100316.24;1817231;78;21031;-62
2022/02/18 01:33:32;;;;;;;6.65;2.83;;;;;;;6.79;53.10;100329.87;1800269;80;21648;-61
2022/02/18 01:36:02;;;;;;;6.85;2.45;;;;;;;6.78;52.99;100304.59;1795783;80;21099;-61
2022/02/18 01:38:30;;;;;;;3.35;2.00;;;;;;;6.78;52.78;100307.20;1800249;80;21558;-62
2022/02/18 01:41:01;;;;;;;47.03;7.17;;;;;;;6.79;52.73;100318.09;1795461;80;21559;-62
2022/02/18 01:43:29;;;;;;;6.85;2.75;;;;;;;6.81;52.04;100311.05;1796034;80;21122;-61
2022/02/18 01:45:58;;;;;;;3.75;2.00;;;;;;;6.81;52.16;100311.05;1800413;80;21553;-62
2022/02/18 01:48:27;;;;;;;5.47;2.80;;;;;;;6.81;52.14;100313.66;1795834;80;21125;-62
2022/02/18 01:50:58;;;;;;;4.03;2.33;;;;;;;6.81;52.10;100318.05;1797716;80;21670;-62
2022/02/18 01:53:28;;;;;;;7.17;2.75;;;;;;;6.81;52.06;100325.91;1795321;80;21072;-63
2022/02/18 01:55:57;;;;;;;4.00;2.22;;;;;;;6.82;51.74;100303.58;1769437;80;21553;-61
2022/02/18 01:58:27;;;;;;;3.80;2.00;;;;;;;6.82;51.62;100297.04;1811997;79;21519;-60
2022/02/18 02:00:56;;;;;;;6.08;2.75;;;;;;;6.82;51.85;100277.87;1814714;77;21088;-61
2022/02/18 02:03:25;;;;;;;4.83;1.70;;;;;;;6.82;51.96;100298.35;1811831;78;21132;-63
2022/02/18 02:05:55;;;;;;;11.08;3.50;;;;;;;6.80;52.01;100273.99;1795624;80;21086;-62
2022/02/18 02:08:24;;;;;;;5.28;3.15;;;;;;;6.76;52.23;100298.09;1765458;81;21083;-63
2022/02/18 02:10:53;;;;;;;5.53;2.80;;;;;;;6.76;52.52;100286.31;1811978;79;21539;-62
2022/02/18 02:13:31;;;;;;;5.50;2.27;;;;;;;6.78;52.63;100295.43;1812083;79;21088;-61
2022/02/18 02:16:01;;;;;;;7.17;2.65;;;;;;;6.79;52.80;100285.81;1811961;78;21050;-63
2022/02/18 02:18:30;;;;;;;6.53;3.12;;;;;;;6.80;52.95;100274.45;1800575;80;21107;-61
2022/02/18 02:21:00;;;;;;;9.25;3.30;;;;;;;6.82;53.12;100283.95;1796132;80;21146;-62
2022/02/18 02:23:30;;;;;;;10.63;3.45;;;;;;;6.84;53.14;100286.10;1799295;80;21521;-63
2022/02/18 02:25:59;;;;;;;7.12;3.17;;;;;;;6.85;53.49;100302.66;1795777;80;21663;-63
2022/02/18 02:28:30;;;;;;;6.90;3.52;;;;;;;6.86;53.86;100321.36;1795426;80;21098;-60
2022/02/18 02:30:59;;;;;;;4.58;2.90;;;;;;;6.87;53.98;100290.38;1800455;80;21151;-60
2022/02/18 02:33:28;;;;;;;6.47;2.65;;;;;;;6.86;54.19;100282.98;1795945;80;21098;-62
2022/02/18 02:35:57;;;;;;;7.62;3.20;;;;;;;6.89;54.28;100299.03;1800374;80;21526;-62
2022/02/18 02:38:26;;;;;;;8.80;2.80;;;;;;;6.89;54.30;100290.72;1795874;80;21107;-60
2022/02/18 02:40:56;;;;;;;6.78;2.67;;;;;;;6.89;54.28;100287.25;1787261;80;21075;-61
2022/02/18 02:43:27;;;;;;;6.08;2.50;;;;;;;6.89;54.36;100295.95;1811965;79;21119;-59
2022/02/18 02:45:55;;;;;;;6.78;3.08;;;;;;;6.88;54.62;100281.17;1812081;79;21190;-61
2022/02/18 02:48:24;;;;;;;6.60;2.87;;;;;;;6.88;55.04;100287.72;1811904;79;21079;-62
2022/02/18 02:50:57;;;;;;;5.08;2.60;;;;;;;6.87;55.08;100288.61;1797296;78;21113;-61
2022/02/18 02:53:27;;;;;;;6.53;2.90;;;;;;;6.87;55.16;100282.06;1765313;81;21620;-61
2022/02/18 02:55:56;;;;;;;10.45;3.33;;;;;;;6.85;55.29;100278.64;1795658;80;21113;-62
2022/02/18 02:58:25;;;;;;;6.47;2.90;;;;;;;6.87;55.47;100279.45;1765305;81;21099;-61
2022/02/18 03:00:54;;;;;;;10.28;3.45;;;;;;;6.92;55.40;100261.00;1812508;77;21571;-64
2022/02/18 03:03:30;;;;;;;9.63;4.20;;;;;;;6.94;55.28;100270.50;1821493;77;21093;-62
2022/02/18 03:06:00;;;;;;;8.90;3.72;;;;;;;7.01;54.90;100268.98;1821072;77;21132;-62
2022/02/18 03:08:30;;;;;;;7.55;3.33;;;;;;;7.06;54.61;100260.08;1821185;79;21054;-60
2022/02/18 03:11:17;;;;;;;8.50;4.33;;;;;;;7.09;54.22;100248.21;1821161;79;21156;-61
2022/02/18 03:13:53;;;;;;;9.93;3.55;;;;;;;7.12;54.04;100254.66;1832522;77;21108;-62
2022/02/18 03:16:22;;;;;;;7.65;3.30;;;;;;;7.15;53.76;100236.22;1851447;77;21104;-62
2022/02/18 03:18:51;;;;;;;9.00;3.72;;;;;;;7.17;53.68;100241.41;1851402;77;21547;-62
2022/02/18 03:21:20;;;;;;;7.80;4.08;;;;;;;7.19;53.54;100243.52;1851488;77;21086;-62
2022/02/18 03:23:48;;;;;;;5.90;3.25;;;;;;;7.19;53.14;100221.26;1848761;77;21543;-63
2022/02/18 03:26:19;;;;;;;7.00;4.33;;;;;;;7.21;52.85;100232.56;1851483;77;21521;-62
2022/02/18 03:28:50;;;;;;;9.08;4.28;;;;;;;7.23;52.63;100249.52;1851332;77;21135;-64
2022/02/18 03:31:20;;;;;;;6.60;3.60;;;;;;;7.20;52.65;100250.48;1849735;77;21128;-63
2022/02/18 03:33:49;;;;;;;6.12;3.25;;;;;;;7.22;52.62;100251.28;1848689;77;21117;-62
2022/02/18 03:36:18;;;;;;;8.80;3.67;;;;;;;7.20;52.60;100237.39;1851457;77;21607;-62
2022/02/18 03:38:47;;;;;;;9.08;4.03;;;;;;;7.20;52.59;100266.19;1851513;77;21073;-63
2022/02/18 03:41:16;;;;;;;6.83;2.83;;;;;;;7.19;52.64;100264.47;1848670;77;21070;-62
2022/02/18 03:43:45;;;;;;;8.95;3.72;;;;;;;7.20;52.72;100266.19;1851375;77;21215;-62
2022/02/18 03:46:16;;;;;;;6.60;2.98;;;;;;;7.20;52.81;100283.21;1851330;77;21077;-62
2022/02/18 03:48:46;;;;;;;6.50;3.22;;;;;;;7.20;52.84;100283.67;1851524;77;21140;-62
2022/02/18 03:51:17;;;;;;;7.10;4.15;;;;;;;7.20;52.88;100264.88;1848591;77;21069;-62
2022/02/18 03:53:49;;;;;;;7.58;3.72;;;;;;;7.21;52.73;100269.66;1851476;77;21038;-62
2022/02/18 03:56:18;;;;;;;10.50;4.28;;;;;;;7.24;52.70;100263.02;1851146;77;21155;-62
2022/02/18 03:58:48;;;;;;;5.30;3.27;;;;;;;7.24;52.55;100269.11;1851276;77;21503;-62
2022/02/18 04:01:17;;;;;;;9.15;4.17;;;;;;;7.26;52.33;100260.74;1851509;77;21489;-62
2022/02/18 04:03:46;;;;;;;10.30;3.12;;;;;;;7.31;51.98;100264.08;1850382;77;21171;-62
2022/02/18 04:06:20;;;;;;;5.87;3.42;;;;;;;7.33;51.86;100263.56;1820712;77;21104;-61
2022/02/18 04:08:50;;;;;;;9.28;3.52;;;;;;;7.36;51.67;100270.48;1798225;79;21090;-61
2022/02/18 04:11:24;;;;;;;6.78;3.77;;;;;;;7.38;51.51;100263.86;1797332;79;21075;-62
2022/02/18 04:13:52;;;;;;;10.48;4.00;;;;;;;7.40;51.14;100279.09;1838069;77;21082;-62
2022/02/18 04:16:23;;;;;;;10.28;4.33;;;;;;;7.39;51.38;100265.58;1849131;77;21105;-61
2022/02/18 04:18:56;;;;;;;7.10;4.45;;;;;;;7.37;51.33;100268.25;1849005;77;21172;-63
2022/02/18 04:21:25;;;;;;;7.05;3.70;;;;;;;7.40;50.62;100264.69;1849028;77;21603;-62
2022/02/18 04:23:56;;;;;;;8.25;3.52;;;;;;;7.45;50.87;100269.30;1845407;77;21203;-61
2022/02/18 04:26:25;;;;;;;5.53;3.22;;;;;;;7.45;51.06;100268.87;1849191;77;21070;-61
2022/02/18 04:28:54;;;;;;;5.62;3.30;;;;;;;7.46;51.08;100249.61;1849107;77;21493;-62
2022/02/18 04:31:23;;;;;;;10.20;3.77;;;;;;;7.49;51.09;100267.00;1849059;77;21077;-62
2022/02/18 04:33:51;;;;;;;6.87;3.85;;;;;;;7.49;51.25;100272.23;1845347;77;21042;-61
2022/02/18 04:36:20;;;;;;;10.18;4.45;;;;;;;7.49;50.99;100267.00;1849097;77;21058;-61
2022/02/18 04:38:49;;;;;;;7.90;3.67;;;;;;;7.54;50.25;100270.30;1849085;77;21135;-61
2022/02/18 04:41:17;;;;;;;4.72;2.92;;;;;;;7.58;50.01;100277.59;1849037;77;21469;-61
2022/02/18 04:43:46;;;;;;;7.87;2.70;;;;;;;7.59;50.20;100264.91;1845663;77;21054;-61
2022/02/18 04:46:15;;;;;;;6.25;4.10;;;;;;;7.60;49.94;100280.59;1848984;77;21614;-63
2022/02/18 04:48:44;;;;;;;6.42;2.55;;;;;;;7.63;49.84;100266.05;1849026;77;21484;-62
2022/02/18 04:51:13;;;;;;;7.30;3.52;;;;;;;7.64;49.80;100273.02;1849290;77;21123;-63
2022/02/18 04:53:42;;;;;;;7.33;3.00;;;;;;;7.65;49.99;100272.09;1849159;77;21473;-62
2022/02/18 04:56:11;;;;;;;7.35;3.55;;;;;;;7.66;49.78;100269.89;1802061;77;21023;-62
2022/02/18 04:58:40;;;;;;;6.92;3.90;;;;;;;7.68;49.73;100282.94;1798524;79;21040;-63
2022/02/18 05:01:09;;;;;;;8.88;4.58;;;;;;;7.71;49.64;100302.04;1798606;79;21106;-62
2022/02/18 05:03:39;;;;;;;8.85;3.55;;;;;;;7.76;49.46;100274.81;1799760;79;21039;-62
2022/02/18 05:06:28;;;;;;;6.22;3.47;;;;;;;7.80;49.09;100271.16;1811872;79;21079;-63
2022/02/18 05:08:57;;;;;;;8.50;3.83;;;;;;;7.82;49.22;100283.75;1850849;77;21155;-62
2022/02/18 05:11:25;;;;;;;9.08;3.80;;;;;;;7.87;48.84;100277.91;1850968;77;21099;-63
2022/02/18 05:13:54;;;;;;;6.58;3.83;;;;;;;7.89;48.78;100278.70;1851023;77;21056;-61
2022/02/18 05:16:23;;;;;;;8.20;3.77;;;;;;;7.92;48.83;100265.50;1851199;77;21079;-61
2022/02/18 05:18:54;;;;;;;8.03;3.83;;;;;;;7.95;48.29;100264.52;1850983;76;21082;-61
2022/02/18 05:21:22;;;;;;;6.92;3.77;;;;;;;7.96;48.18;100278.89;1850975;77;21166;-61
2022/02/18 05:23:51;;;;;;;10.80;3.17;;;;;;;7.98;47.94;100265.27;1851008;77;21150;-62
2022/02/18 05:26:20;;;;;;;10.72;4.05;;;;;;;8.03;47.84;100286.94;1851017;77;21059;-63
2022/02/18 05:28:48;;;;;;;6.95;3.30;;;;;;;8.06;47.79;100283.34;1850997;77;21076;-63
2022/02/18 05:31:17;;;;;;;11.85;3.40;;;;;;;8.06;48.16;100306.51;1851096;76;21104;-63
2022/02/18 05:33:46;;;;;;;8.85;4.87;;;;;;;8.08;48.33;100311.70;1850971;77;21072;-62
2022/02/18 05:36:16;;;;;;;7.72;3.72;;;;;;;8.08;48.60;100308.62;1850175;76;21169;-62
2022/02/18 05:38:46;;;;;;;11.78;4.58;;;;;;;8.10;48.87;100296.30;1850993;77;21153;-61
2022/02/18 05:41:16;;;;;;;30.75;10.90;;;;;;;8.11;49.09;100287.54;1850956;77;21068;-61
2022/02/18 05:43:45;;;;;;;19.23;7.47;;;;;;;8.14;49.16;100277.84;1850951;77;21490;-62
2022/02/18 05:46:15;;;;;;;24.45;9.25;;;;;;;8.18;48.90;100292.55;1850992;77;21544;-62
2022/02/18 05:48:44;;;;;;;10.78;4.33;;;;;;;8.22;49.04;100296.77;1850851;77;21103;-60
2022/02/18 05:51:13;;;;;;;19.60;7.85;;;;;;;8.26;49.02;100298.36;1850851;77;21467;-63
2022/02/18 05:56:37;;;;;;;29.12;10.58;;;;;;;8.31;49.49;100300.37;1861820;77;21092;-62
2022/02/18 05:59:06;;;;;;;13.20;5.75;;;;;;;8.36;49.38;100282.70;1891358;76;21032;-62
2022/02/18 06:01:35;;;;;;;11.83;5.60;;;;;;;8.39;49.40;100291.77;1861845;77;21020;-62
2022/02/18 06:04:04;;;;;;;10.25;4.42;;;;;;;8.40;49.41;100296.09;1861915;77;21048;-61
2022/02/18 06:06:32;;;;;;;7.53;3.67;;;;;;;8.42;49.46;100295.61;1861776;77;21114;-62
2022/02/18 06:09:01;;;;;;;8.28;3.70;;;;;;;8.45;49.33;100289.41;1861841;77;21056;-61
2022/02/18 06:11:31;;;;;;;6.03;2.90;;;;;;;8.46;49.41;100301.13;1861287;77;21202;-61
2022/02/18 06:14:00;;;;;;;6.97;4.08;;;;;;;8.47;49.20;100300.23;1861975;77;21083;-61
2022/02/18 06:16:28;;;;;;;15.32;5.08;;;;;;;8.52;48.54;100283.45;1862051;77;21471;-60
2022/02/18 06:18:58;;;;;;;12.30;4.15;;;;;;;8.58;46.73;100293.74;1861674;77;21198;-62
2022/02/18 06:21:27;;;;;;;10.40;3.72;;;;;;;8.64;46.11;100286.47;1830893;78;21112;-61
2022/02/18 06:23:55;;;;;;;15.28;4.33;;;;;;;8.70;46.28;100280.13;1830876;78;21147;-59
2022/02/18 06:26:24;;;;;;;10.80;4.85;;;;;;;8.77;45.35;100297.36;1831014;78;21032;-60
2022/02/18 06:28:53;;;;;;;7.53;4.30;;;;;;;8.75;47.45;100288.69;1830905;78;21122;-59
2022/02/18 06:31:21;;;;;;;9.45;3.87;;;;;;;8.46;47.49;100289.33;1859787;77;21493;-59
2022/02/18 06:33:50;;;;;;;10.72;5.47;;;;;;;8.33;47.82;100297.23;1862002;77;21150;-59
2022/02/18 06:36:19;;;;;;;10.75;4.35;;;;;;;8.26;46.55;100321.53;1861975;77;21048;-60
2022/02/18 06:38:47;;;;;;;5.15;3.55;;;;;;;8.31;46.79;100321.35;1861826;77;21051;-61
2022/02/18 06:41:16;;;;;;;7.58;4.25;;;;;;;8.39;46.60;100320.63;1861979;77;21142;-61
2022/02/18 06:43:45;;;;;;;6.37;3.98;;;;;;;8.47;46.33;100294.98;1861957;77;21127;-60
2022/02/18 06:46:14;;;;;;;12.70;4.15;;;;;;;8.57;46.70;100305.14;1861782;77;21113;-60
2022/02/18 06:48:43;;;;;;;6.53;3.08;;;;;;;8.65;46.71;100301.75;1861973;77;21024;-60
2022/02/18 06:51:12;;;;;;;5.67;3.20;;;;;;;8.73;46.50;100248.98;1861968;77;21597;-61
2022/02/18 06:53:40;;;;;;;6.30;3.22;;;;;;;8.79;46.62;100288.11;1861930;77;21539;-60
2022/02/18 06:56:10;;;;;;;11.35;3.92;;;;;;;8.88;46.51;100299.56;1873075;76;21596;-60
2022/02/18 06:58:38;;;;;;;7.35;3.95;;;;;;;8.94;46.71;100319.02;1880166;76;21487;-61
2022/02/18 07:01:07;;;;;;;6.03;3.62;;;;;;;9.00;47.29;100328.42;1880268;76;21040;-60
2022/02/18 07:15:27;;;;;;;10.05;5.03;;;;;;;9.40;48.87;100336.88;1971255;72;28052;-59
2022/02/18 07:17:56;;;;;;;14.70;4.95;;;;;;;9.36;48.83;100351.06;1919510;75;21031;-58
2022/02/18 07:20:25;;;;;;;13.00;5.67;;;;;;;9.32;49.11;100324.53;1919347;75;21549;-60
2022/02/18 07:22:53;;;;;;;15.55;5.33;;;;;;;9.28;49.00;100354.01;1919412;75;21469;-59
2022/02/18 07:25:23;;;;;;;11.88;5.53;;;;;;;9.26;48.80;100359.78;1919488;75;21054;-59
2022/02/18 07:27:51;;;;;;;13.22;6.17;;;;;;;9.23;48.43;100338.87;1916146;73;21570;-60
2022/02/18 07:30:20;;;;;;;13.18;5.58;;;;;;;9.23;48.58;100354.64;1915358;75;21031;-61
2022/02/18 07:32:49;;;;;;;10.68;5.12;;;;;;;9.14;50.22;100348.44;1915345;75;21111;-59
2022/02/18 07:35:17;;;;;;;11.85;4.87;;;;;;;8.98;51.72;100353.45;1915245;75;21118;-59
2022/02/18 07:37:48;;;;;;;11.33;6.08;;;;;;;8.82;52.60;100355.80;1917710;73;21052;-61
2022/02/18 07:40:18;;;;;;;8.48;4.72;;;;;;;8.57;55.02;100353.69;1916687;74;21154;-60
2022/02/18 07:42:46;;;;;;;12.93;5.92;;;;;;;7.97;57.78;100339.61;1912510;75;21590;-57
2022/02/18 07:45:16;;;;;;;11.33;6.03;;;;;;;7.73;58.84;100336.91;1912460;75;21114;-59
2022/02/18 07:47:47;;;;;;;9.45;4.55;;;;;;;7.68;59.74;100344.06;1912289;75;21521;-59
2022/02/18 07:50:16;;;;;;;13.55;4.90;;;;;;;7.92;60.19;100316.62;1915751;73;21299;-59
2022/02/18 07:52:45;;;;;;;12.33;6.05;;;;;;;8.11;59.46;100308.52;1909654;75;21133;-59
2022/02/18 07:55:14;;;;;;;16.57;6.33;;;;;;;8.26;59.65;100316.72;1909622;75;21556;-61
2022/02/18 07:57:43;;;;;;;12.80;5.70;;;;;;;8.25;59.39;100301.91;1913142;73;21082;-60
2022/02/18 08:00:12;;;;;;;10.28;4.70;;;;;;;8.42;58.86;100292.98;1938189;73;21051;-58
2022/02/18 08:02:41;;;;;;;12.35;5.35;;;;;;;8.67;56.93;100286.83;1919435;75;21062;-59
2022/02/18 08:05:10;;;;;;;10.85;5.10;;;;;;;8.80;56.06;100285.90;1928772;73;21224;-60
2022/02/18 08:07:39;;;;;;;9.83;4.72;;;;;;;8.86;55.02;100273.37;1937752;73;21470;-59
2022/02/18 08:10:08;;;;;;;8.80;4.35;;;;;;;8.87;54.24;100281.66;1938289;74;21423;-60
2022/02/18 08:12:37;;;;;;;11.05;5.50;;;;;;;8.93;54.00;100288.87;1938098;74;21087;-60
2022/02/18 08:15:06;;;;;;;10.35;5.78;;;;;;;9.03;53.83;100291.54;1936054;73;21138;-61
2022/02/18 08:17:38;;;;;;;10.15;5.42;;;;;;;9.14;52.94;100284.55;1943698;74;21478;-59
2022/02/18 08:20:09;;;;;;;12.55;5.80;;;;;;;9.25;52.78;100279.25;1943736;74;21545;-59
2022/02/18 08:22:38;;;;;;;12.37;6.15;;;;;;;9.42;52.68;100311.39;1943784;74;21031;-59
2022/02/18 08:25:08;;;;;;;10.82;5.92;;;;;;;9.57;51.94;100281.02;1943612;74;21148;-59
2022/02/18 08:27:37;;;;;;;9.95;5.90;;;;;;;9.68;51.83;100287.11;1950123;73;21128;-60
2022/02/18 08:30:07;;;;;;;8.28;5.28;;;;;;;9.75;51.46;100300.86;1952921;73;21140;-60
2022/02/18 08:32:36;;;;;;;17.87;6.45;;;;;;;9.79;50.56;100251.16;1952935;73;21087;-60
2022/02/18 08:35:07;;;;;;;11.93;4.95;;;;;;;9.83;50.79;100295.67;1952792;73;21137;-60
2022/02/18 08:37:36;;;;;;;7.53;4.47;;;;;;;9.85;51.21;100236.45;1950114;73;21065;-60
2022/02/18 08:40:05;;;;;;;11.60;4.45;;;;;;;9.95;51.75;100230.31;1952921;73;21087;-60
2022/02/18 08:42:34;;;;;;;15.60;6.17;;;;;;;10.04;51.48;100226.80;1953076;73;21093;-60
2022/02/18 08:45:05;;;;;;;14.47;5.80;;;;;;;9.99;50.88;100228.78;1953078;73;21059;-62
2022/02/18 08:47:33;;;;;;;6.03;4.05;;;;;;;9.98;51.46;100225.77;1953016;73;21031;-60
2022/02/18 08:50:03;;;;;;;12.95;5.78;;;;;;;10.05;51.89;100218.00;1952924;73;21132;-61
2022/02/18 08:52:33;;;;;;;9.40;5.22;;;;;;;10.10;51.65;100232.72;1928367;73;21132;-60
2022/02/18 08:55:02;;;;;;;14.07;4.42;;;;;;;10.11;51.49;100218.19;1929293;74;21527;-61
2022/02/18 08:57:32;;;;;;;9.15;4.72;;;;;;;10.14;51.35;100222.44;1937628;74;21110;-59
2022/02/18 09:00:00;;;;;;;9.30;4.60;;;;;;;10.18;50.59;100219.61;1937160;73;21429;-59
2022/02/18 09:02:29;;;;;;;10.63;5.55;;;;;;;10.20;50.42;100223.02;1937249;74;21056;-62
2022/02/18 09:04:58;;;;;;;10.78;4.85;;;;;;;10.21;49.05;100225.19;1937401;74;22349;-59
2022/02/18 09:07:27;;;;;;;11.43;6.08;;;;;;;10.22;48.85;100197.49;1937513;74;21164;-59
2022/02/18 09:10:01;;;;;;;10.70;5.53;;;;;;;10.25;48.77;100196.48;1937395;74;21024;-60
2022/02/18 09:12:27;;;;;;;8.45;3.75;;;;;;;10.29;48.63;100189.30;1918163;73;21129;-59
2022/02/18 09:14:56;;;;;;;7.90;4.08;;;;;;;10.35;49.21;100192.55;1954495;73;21496;-59
2022/02/18 09:17:26;;;;;;;8.85;4.92;;;;;;;10.34;49.51;100188.20;1960943;73;21465;-59
2022/02/18 09:19:55;;;;;;;11.20;4.78;;;;;;;10.23;48.10;100187.81;1947841;73;21000;-59
2022/02/18 09:22:25;;;;;;;7.00;3.90;;;;;;;10.27;48.05;100184.11;1944366;74;21016;-59
2022/02/18 09:25:13;;;;;;;8.10;3.87;;;;;;;10.32;48.11;100182.63;1847376;76;21179;-59
2022/02/18 09:27:41;;;;;;;10.88;3.55;;;;;;;10.40;47.61;100174.77;1896344;76;21149;-60
2022/02/18 09:30:12;;;;;;;8.80;3.35;;;;;;;10.45;47.21;100176.33;1896491;76;21133;-59
2022/02/18 09:32:41;;;;;;;9.70;3.87;;;;;;;10.45;46.61;100140.31;1896496;76;21133;-59
2022/02/18 09:35:09;;;;;;;11.90;4.33;;;;;;;10.45;46.08;100142.11;1907415;75;21449;-60
2022/02/18 09:37:38;;;;;;;13.58;4.70;;;;;;;10.45;46.49;100131.58;1914192;75;21116;-59
2022/02/18 09:40:08;;;;;;;12.33;4.55;;;;;;;10.49;45.93;100116.02;1914059;75;21098;-60
2022/02/18 09:42:40;;;;;;;5.62;3.33;;;;;;;10.56;46.40;100131.91;1914118;75;21111;-60
2022/02/18 09:45:10;;;;;;;8.20;3.98;;;;;;;10.67;46.64;100099.80;1913925;75;21110;-62
2022/02/18 09:47:41;;;;;;;10.35;4.30;;;;;;;10.70;46.38;100118.92;1913331;75;21433;-61
2022/02/18 09:50:12;;;;;;;10.30;4.72;;;;;;;10.75;46.77;100122.19;1914269;75;21055;-62
2022/02/18 09:52:41;;;;;;;8.88;4.00;;;;;;;10.78;46.68;100115.44;1913266;75;21462;-61
2022/02/18 09:55:10;;;;;;;8.80;4.42;;;;;;;10.81;46.68;100112.66;1913356;75;21461;-62
2022/02/18 09:57:40;;;;;;;11.53;5.00;;;;;;;10.79;46.37;100113.20;1914082;75;21540;-62
2022/02/18 10:00:13;;;;;;;7.78;4.10;;;;;;;10.76;46.20;100125.67;1913842;75;21067;-62
2022/02/18 10:02:43;;;;;;;11.22;5.28;;;;;;;10.76;46.36;100143.62;1914074;74;21161;-61
2022/02/18 10:05:12;;;;;;;8.73;3.67;;;;;;;10.80;46.80;100153.55;1913952;75;21128;-62
2022/02/18 10:08:14;;;;;;;13.13;5.10;;;;;;;10.81;46.92;100161.38;1914162;75;21038;-60
2022/02/18 10:10:45;;;;;;;10.05;4.65;;;;;;;10.86;46.95;100157.19;1913056;75;21108;-60
2022/02/18 10:13:31;;;;;;;12.13;4.05;;;;;;;10.96;46.90;100147.06;1901168;75;21531;-60
2022/02/18 10:16:02;;;;;;;8.55;3.90;;;;;;;10.99;46.56;100159.63;1902440;75;21063;-61
2022/02/18 10:18:48;;;;;;;7.78;4.20;;;;;;;11.05;45.99;100169.00;1902433;75;21095;-60
2022/02/18 10:21:19;;;;;;;9.35;4.30;;;;;;;11.02;46.05;100129.63;1898431;75;21085;-61
2022/02/18 10:23:48;;;;;;;8.68;3.77;;;;;;;10.98;44.90;100141.25;1895265;75;21070;-59
2022/02/18 10:26:17;;;;;;;11.20;5.03;;;;;;;10.99;44.99;100121.86;1879840;76;21630;-59
2022/02/18 10:28:48;;;;;;;12.73;4.17;;;;;;;10.99;43.58;100129.77;1910441;75;21086;-61
2022/02/18 10:31:18;;;;;;;11.15;4.53;;;;;;;10.96;42.76;100140.01;1912273;75;21137;-60
2022/02/18 10:33:50;;;;;;;14.90;5.25;;;;;;;10.92;42.29;100109.93;1914036;75;21074;-61
2022/02/18 10:36:18;;;;;;;11.78;6.20;;;;;;;10.90;42.22;100132.86;1911260;75;21082;-61
2022/02/18 10:38:49;;;;;;;12.70;5.83;;;;;;;10.88;42.17;100114.97;1912912;75;21098;-61
2022/02/18 10:41:23;;;;;;;14.85;6.08;;;;;;;10.84;42.15;100114.75;1873656;76;21098;-62
2022/02/18 10:43:51;;;;;;;12.90;6.45;;;;;;;10.84;42.66;100111.64;1871757;75;21521;-61
2022/02/18 10:46:20;;;;;;;13.58;5.83;;;;;;;10.85;42.22;100106.77;1871932;77;21047;-60
2022/02/18 10:48:53;;;;;;;12.68;6.33;;;;;;;10.92;42.34;100100.27;1871860;77;21468;-60
2022/02/18 10:51:30;;;;;;;12.35;5.15;;;;;;;10.94;42.12;100036.98;1901672;74;21601;-60
2022/02/18 10:53:57;;;;;;;11.38;5.05;;;;;;;10.99;42.76;100108.70;1923475;74;21356;-60
2022/02/18 10:56:29;;;;;;;11.53;5.67;;;;;;;11.08;43.40;100072.66;1923785;74;21050;-60
2022/02/18 10:58:59;;;;;;;12.88;5.45;;;;;;;11.13;44.24;100110.16;1923643;74;21034;-60
2022/02/18 11:01:28;;;;;;;8.80;5.00;;;;;;;11.12;45.25;100111.55;1923565;74;21034;-61
2022/02/18 11:04:05;;;;;;;12.63;6.70;;;;;;;11.09;46.52;100107.31;1923906;74;21179;-62
2022/02/18 11:06:37;;;;;;;9.68;5.10;;;;;;;11.12;47.63;100113.75;1881567;74;21019;-60
2022/02/18 11:09:11;;;;;;;12.35;4.92;;;;;;;11.17;48.00;100118.77;1913004;75;21519;-61
2022/02/18 11:11:45;;;;;;;16.10;5.80;;;;;;;11.35;48.17;100110.38;1913004;75;21032;-64
2022/02/18 11:14:19;;;;;;;11.33;5.83;;;;;;;11.49;48.32;100124.14;1896575;75;20999;-64
2022/02/18 11:16:55;;;;;;;10.63;5.60;;;;;;;11.56;48.26;100114.98;1877459;76;21067;-64
2022/02/18 11:19:27;;;;;;;15.35;6.90;;;;;;;11.85;47.82;100127.08;1877157;76;21076;-64
2022/02/18 11:21:52;;;;;;;8.08;3.77;;;;;;;11.88;47.78;100144.07;1876710;76;21141;-65
2022/02/18 11:24:21;;;;;;;11.68;5.37;;;;;;;11.74;47.84;100066.99;1878053;76;21048;-65
2022/02/18 11:26:51;;;;;;;11.73;6.12;;;;;;;11.54;48.22;100099.23;1903874;74;21014;-64
2022/02/18 11:29:20;;;;;;;11.15;5.80;;;;;;;11.31;49.16;100118.06;1919805;74;21134;-65
2022/02/18 11:31:51;;;;;;;15.95;8.15;;;;;;;11.20;49.76;100130.00;1920336;74;21425;-64
2022/02/18 11:34:40;;;;;;;14.80;7.33;;;;;;;11.22;50.24;100167.30;1920778;74;21012;-65
2022/02/18 11:37:33;;;;;;;14.43;7.53;;;;;;;11.16;51.36;100141.64;1917401;74;21540;-61
2022/02/18 11:40:10;;;;;;;11.85;5.72;;;;;;;11.07;53.21;100140.79;1911678;74;21505;-61
2022/02/18 11:42:44;;;;;;;10.58;5.47;;;;;;;10.71;54.66;100129.83;1921741;74;21136;-65
2022/02/18 11:45:18;;;;;;;15.55;7.45;;;;;;;10.43;56.10;100139.07;1916619;74;21219;-61
2022/02/18 11:47:47;;;;;;;10.65;6.55;;;;;;;10.23;57.39;100143.08;1923712;74;21469;-67
2022/02/18 11:50:21;;;;;;;12.47;6.20;;;;;;;9.96;59.47;100137.32;1923544;74;21058;-66
2022/02/18 11:52:52;;;;;;;11.63;6.50;;;;;;;9.83;60.87;100152.81;1922152;74;21210;-66
2022/02/18 11:55:34;;;;;;;12.20;6.35;;;;;;;9.84;61.40;100131.70;1905490;74;21030;-69